createdAt,value
2019-03-27T00:01:12.465Z,1.80
2019-03-27T00:03:40.907Z,1.80
2019-03-27T00:06:09.383Z,1.70
2019-03-27T00:08:37.933Z,1.60
2019-03-27T00:11:06.643Z,1.50
2019-03-27T00:13:35.083Z,1.50
2019-03-27T00:16:03.712Z,1.60
2019-03-27T00:18:32.150Z,1.60
2019-03-27T00:21:00.606Z,1.60
2019-03-27T00:23:29.050Z,1.60
2019-03-27T00:25:57.507Z,1.60
2019-03-27T00:28:25.969Z,1.70
2019-03-27T00:30:54.418Z,1.80
2019-03-27T00:33:22.875Z,1.80
2019-03-27T00:35:51.335Z,1.90
2019-03-27T00:38:19.791Z,2.10
2019-03-27T00:40:48.246Z,2.10
2019-03-27T00:43:16.690Z,2.00
2019-03-27T00:45:45.218Z,2.10
2019-03-27T00:48:13.667Z,2.10
2019-03-27T00:50:42.196Z,2.10
2019-03-27T00:53:10.639Z,2.10
2019-03-27T00:55:39.411Z,2.10
2019-03-27T00:58:07.856Z,2.10
2019-03-27T01:00:45.051Z,2.00
2019-03-27T01:03:13.580Z,2.00
2019-03-27T01:05:42.018Z,2.10
2019-03-27T01:08:10.483Z,2.00
2019-03-27T01:10:38.931Z,2.10
2019-03-27T01:13:07.387Z,2.20
2019-03-27T01:15:39.997Z,2.10
2019-03-27T01:18:06.015Z,2.10
2019-03-27T01:20:34.477Z,2.00
2019-03-27T01:23:02.926Z,1.80
2019-03-27T01:25:31.479Z,1.70
2019-03-27T01:27:59.923Z,1.70
2019-03-27T01:30:28.367Z,1.60
2019-03-27T01:32:56.824Z,1.50
2019-03-27T01:35:25.274Z,1.60
2019-03-27T01:37:53.753Z,1.70
2019-03-27T01:40:22.262Z,1.70
2019-03-27T01:42:50.715Z,1.70
2019-03-27T01:45:19.253Z,1.70
2019-03-27T01:47:47.695Z,1.70
2019-03-27T01:50:16.219Z,1.80
2019-03-27T01:52:44.666Z,1.60
2019-03-27T01:55:13.275Z,1.50
2019-03-27T01:57:41.792Z,1.40
2019-03-27T02:00:10.663Z,1.40
2019-03-27T02:02:39.179Z,1.40
2019-03-27T02:05:07.980Z,1.30
2019-03-27T02:07:36.435Z,1.40
2019-03-27T02:10:07.215Z,1.40
2019-03-27T02:12:35.748Z,1.30
2019-03-27T02:15:06.899Z,1.20
2019-03-27T02:17:35.427Z,1.20
2019-03-27T02:20:05.407Z,1.30
2019-03-27T02:22:33.889Z,1.30
2019-03-27T02:25:02.409Z,1.40
2019-03-27T02:27:30.874Z,1.40
2019-03-27T02:29:59.386Z,1.40
2019-03-27T02:32:27.845Z,1.40
2019-03-27T02:34:56.307Z,1.30
2019-03-27T02:37:24.757Z,1.30
2019-03-27T02:39:53.290Z,1.30
2019-03-27T02:42:21.806Z,1.40
2019-03-27T02:44:50.320Z,1.50
2019-03-27T02:47:18.782Z,1.40
2019-03-27T02:49:47.319Z,1.30
2019-03-27T02:52:15.851Z,1.30
2019-03-27T02:54:44.367Z,1.20
2019-03-27T02:57:12.835Z,1.10
2019-03-27T02:59:41.416Z,1.10
2019-03-27T03:02:10.017Z,1.10
2019-03-27T03:04:38.471Z,1.10
2019-03-27T03:07:06.915Z,1.10
2019-03-27T03:09:35.380Z,1.10
2019-03-27T03:12:03.900Z,1.10
2019-03-27T03:14:32.503Z,1.00
2019-03-27T03:17:01.024Z,0.90
2019-03-27T03:19:29.641Z,0.80
2019-03-27T03:21:58.156Z,0.80
2019-03-27T03:24:26.701Z,0.90
2019-03-27T03:26:55.227Z,1.00
2019-03-27T03:29:23.998Z,1.10
2019-03-27T03:31:52.541Z,1.10
2019-03-27T03:34:21.350Z,1.10
2019-03-27T03:36:50.517Z,1.10
2019-03-27T03:39:19.038Z,1.10
2019-03-27T03:41:47.742Z,1.10
2019-03-27T03:44:16.259Z,1.10
2019-03-27T03:46:58.807Z,1.10
2019-03-27T03:49:14.916Z,1.10
2019-03-27T03:51:43.792Z,1.10
2019-03-27T03:54:12.815Z,1.10
2019-03-27T03:56:42.230Z,1.10
2019-03-27T03:59:13.091Z,1.00
2019-03-27T04:01:43.435Z,1.00
2019-03-27T04:04:13.355Z,1.00
2019-03-27T04:06:41.888Z,1.00
2019-03-27T04:09:10.512Z,1.10
2019-03-27T04:11:38.973Z,1.00
2019-03-27T04:14:07.597Z,1.10
2019-03-27T04:16:36.062Z,1.00
2019-03-27T04:19:04.595Z,1.10
2019-03-27T04:21:33.112Z,1.10
2019-03-27T04:24:01.596Z,1.20
2019-03-27T04:26:33.393Z,1.20
2019-03-27T04:29:00.416Z,1.20
2019-03-27T04:31:28.929Z,1.20
2019-03-27T04:33:58.028Z,1.10
2019-03-27T04:36:26.548Z,1.10
2019-03-27T04:38:55.003Z,1.10
2019-03-27T04:41:23.467Z,1.10
2019-03-27T04:43:51.998Z,1.10
2019-03-27T04:46:20.523Z,1.10
2019-03-27T04:48:49.060Z,1.10
2019-03-27T04:51:17.514Z,1.00
2019-03-27T04:53:45.975Z,1.00
2019-03-27T04:56:14.437Z,1.10
2019-03-27T04:58:43.107Z,1.10
2019-03-27T05:01:11.580Z,1.10
2019-03-27T05:03:40.018Z,1.10
2019-03-27T05:06:08.551Z,1.20
2019-03-27T05:08:37.023Z,1.20
2019-03-27T05:11:05.463Z,1.30
2019-03-27T05:13:33.905Z,1.40
2019-03-27T05:16:02.359Z,1.40
2019-03-27T05:18:30.827Z,1.40
2019-03-27T05:20:59.347Z,1.40
2019-03-27T05:23:27.879Z,1.40
2019-03-27T05:25:56.319Z,1.40
2019-03-27T05:28:24.759Z,1.50
2019-03-27T05:30:53.219Z,1.60
2019-03-27T05:33:21.744Z,1.60
2019-03-27T05:35:50.198Z,1.70
2019-03-27T05:38:18.655Z,1.80
2019-03-27T05:40:47.099Z,1.80
2019-03-27T05:43:15.568Z,1.80
2019-03-27T05:45:44.085Z,1.90
2019-03-27T05:48:12.599Z,2.00
2019-03-27T05:50:41.055Z,2.10
2019-03-27T05:53:09.499Z,2.20
2019-03-27T05:55:37.939Z,2.20
2019-03-27T05:58:06.395Z,2.30
2019-03-27T06:00:34.854Z,2.30
2019-03-27T06:03:03.307Z,2.40
2019-03-27T06:05:31.839Z,2.50
2019-03-27T06:08:00.283Z,2.50
2019-03-27T06:10:28.739Z,2.50
2019-03-27T06:12:57.201Z,2.50
2019-03-27T06:15:25.807Z,2.60
2019-03-27T06:17:54.259Z,2.60
2019-03-27T06:20:22.700Z,2.60
2019-03-27T06:22:51.151Z,2.70
2019-03-27T06:25:19.596Z,2.70
2019-03-27T06:27:48.051Z,2.80
2019-03-27T06:30:16.576Z,2.80
2019-03-27T06:32:45.103Z,2.90
2019-03-27T06:35:13.727Z,3.00
2019-03-27T06:37:42.183Z,3.10
2019-03-27T06:40:10.970Z,3.20
2019-03-27T06:42:39.423Z,3.20
2019-03-27T06:45:08.223Z,3.40
2019-03-27T06:47:36.806Z,3.50
2019-03-27T06:50:07.176Z,3.60
2019-03-27T06:52:35.729Z,3.80
2019-03-27T06:55:06.307Z,3.80
2019-03-27T06:57:34.839Z,4.00
2019-03-27T07:00:05.187Z,4.10
2019-03-27T07:02:33.711Z,4.20
2019-03-27T07:05:02.183Z,4.40
2019-03-27T07:07:31.039Z,4.50
2019-03-27T07:09:59.523Z,4.80
2019-03-27T07:12:27.995Z,4.90
2019-03-27T07:14:56.455Z,5.10
2019-03-27T07:17:24.899Z,5.20
2019-03-27T07:19:53.358Z,5.40
2019-03-27T07:22:21.799Z,5.60
2019-03-27T07:24:50.257Z,5.60
2019-03-27T07:27:18.695Z,5.70
2019-03-27T07:29:47.324Z,5.60
2019-03-27T07:32:15.858Z,5.80
2019-03-27T07:34:44.372Z,5.90
2019-03-27T07:37:12.831Z,6.00
2019-03-27T07:39:41.275Z,6.30
2019-03-27T07:42:09.738Z,6.30
2019-03-27T07:44:38.179Z,6.30
2019-03-27T07:47:06.718Z,6.40
2019-03-27T07:49:35.175Z,6.60
2019-03-27T07:52:03.712Z,6.90
2019-03-27T07:54:32.155Z,7.10
2019-03-27T07:57:01.018Z,7.10
2019-03-27T07:59:29.591Z,7.00
2019-03-27T08:01:58.035Z,7.20
2019-03-27T08:04:26.495Z,7.10
2019-03-27T08:06:54.943Z,7.30
2019-03-27T08:09:23.407Z,7.40
2019-03-27T08:11:51.849Z,7.30
2019-03-27T08:14:20.311Z,7.20
2019-03-27T08:16:48.822Z,7.20
2019-03-27T08:19:17.361Z,7.50
2019-03-27T08:21:45.807Z,7.70
2019-03-27T08:24:14.250Z,7.70
2019-03-27T08:26:42.708Z,7.80
2019-03-27T08:29:11.216Z,7.80
2019-03-27T08:31:39.753Z,7.90
2019-03-27T08:34:08.196Z,8.10
2019-03-27T08:36:36.674Z,8.50
2019-03-27T08:39:07.699Z,8.50
2019-03-27T08:41:36.779Z,8.70
2019-03-27T08:44:05.576Z,8.70
2019-03-27T08:46:34.100Z,8.70
2019-03-27T08:49:02.731Z,8.80
2019-03-27T08:51:31.279Z,8.90
2019-03-27T08:53:59.723Z,9.20
2019-03-27T08:56:28.237Z,9.40
2019-03-27T08:58:56.703Z,9.40
2019-03-27T09:01:25.224Z,9.40
2019-03-27T09:03:53.682Z,9.50
2019-03-27T09:06:33.102Z,9.60
2019-03-27T09:08:52.311Z,9.50
2019-03-27T09:11:20.777Z,9.70
2019-03-27T09:13:49.302Z,9.60
2019-03-27T09:16:17.755Z,9.30
2019-03-27T09:18:46.251Z,9.70
2019-03-27T09:21:14.788Z,10.00
2019-03-27T09:23:45.788Z,9.90
2019-03-27T09:26:13.415Z,10.10
2019-03-27T09:28:41.947Z,10.00
2019-03-27T09:31:10.410Z,10.00
2019-03-27T09:33:38.851Z,9.90
2019-03-27T09:36:07.551Z,10.00
2019-03-27T09:38:36.204Z,10.40
2019-03-27T09:41:04.787Z,10.70
2019-03-27T09:43:33.322Z,10.80
2019-03-27T09:46:01.784Z,11.00
2019-03-27T09:48:30.241Z,10.70
2019-03-27T09:50:58.768Z,10.90
2019-03-27T09:53:27.231Z,11.20
2019-03-27T09:55:55.675Z,10.90
2019-03-27T09:58:24.143Z,10.90
2019-03-27T10:00:54.991Z,10.70
2019-03-27T10:03:23.523Z,10.40
2019-03-27T10:05:52.162Z,10.40
2019-03-27T10:08:20.675Z,10.40
2019-03-27T10:10:50.375Z,10.20
2019-03-27T10:13:19.458Z,10.20
2019-03-27T10:15:47.914Z,10.60
2019-03-27T10:18:16.432Z,10.60
2019-03-27T10:20:45.041Z,10.70
2019-03-27T10:23:13.576Z,10.70
2019-03-27T10:25:42.033Z,10.70
2019-03-27T10:28:10.491Z,10.60
2019-03-27T10:30:38.941Z,10.60
2019-03-27T10:33:07.395Z,10.60
2019-03-27T10:35:35.857Z,10.70
2019-03-27T10:38:04.438Z,10.60
2019-03-27T10:40:32.967Z,10.30
2019-03-27T10:43:01.438Z,10.30
2019-03-27T10:45:29.959Z,10.20
2019-03-27T10:47:58.407Z,9.90
2019-03-27T10:50:26.942Z,10.10
2019-03-27T10:52:55.394Z,10.10
2019-03-27T10:55:23.860Z,10.20
2019-03-27T10:57:52.303Z,10.00
2019-03-27T11:00:20.820Z,10.00
2019-03-27T11:02:49.347Z,9.80
2019-03-27T11:05:18.125Z,10.10
2019-03-27T11:07:46.625Z,10.00
2019-03-27T11:10:15.592Z,9.90
2019-03-27T11:12:44.048Z,10.00
2019-03-27T11:15:13.155Z,10.10
2019-03-27T11:17:41.619Z,10.20
2019-03-27T11:20:11.695Z,10.20
2019-03-27T11:22:40.219Z,10.20
2019-03-27T11:25:09.515Z,10.10
2019-03-27T11:27:38.028Z,10.20
2019-03-27T11:30:09.234Z,10.20
2019-03-27T11:32:37.823Z,10.30
2019-03-27T11:35:06.727Z,10.50
2019-03-27T11:37:35.251Z,10.40
2019-03-27T11:40:05.419Z,10.10
2019-03-27T11:42:33.947Z,10.20
2019-03-27T11:45:02.459Z,10.10
2019-03-27T11:47:30.938Z,10.00
2019-03-27T11:49:59.474Z,9.70
2019-03-27T11:52:29.652Z,9.50
2019-03-27T11:54:58.125Z,9.50
2019-03-27T11:57:26.587Z,9.60
2019-03-27T11:59:55.036Z,9.60
2019-03-27T12:02:23.491Z,9.50
2019-03-27T12:04:51.942Z,9.60
2019-03-27T12:07:20.411Z,9.60
2019-03-27T12:09:48.983Z,9.40
2019-03-27T12:12:17.422Z,9.20
2019-03-27T12:14:45.867Z,9.20
2019-03-27T12:17:14.330Z,9.20
2019-03-27T12:19:42.797Z,9.00
2019-03-27T12:22:11.334Z,9.00
2019-03-27T12:24:39.846Z,8.90
2019-03-27T12:27:08.304Z,9.00
2019-03-27T12:29:36.745Z,9.00
2019-03-27T12:32:05.202Z,9.10
2019-03-27T12:34:36.733Z,8.90
2019-03-27T12:37:03.844Z,8.90
2019-03-27T12:39:32.283Z,9.00
2019-03-27T12:42:01.100Z,9.10
2019-03-27T12:44:29.539Z,9.10
2019-03-27T12:46:58.047Z,9.20
2019-03-27T12:49:26.644Z,9.30
2019-03-27T12:51:55.091Z,9.30
2019-03-27T12:54:23.558Z,9.20
2019-03-27T12:56:52.011Z,9.20
2019-03-27T12:59:20.540Z,9.10
2019-03-27T13:01:48.995Z,9.00
2019-03-27T13:04:17.441Z,9.00
2019-03-27T13:06:45.896Z,9.10
2019-03-27T13:09:14.411Z,9.10
2019-03-27T13:11:42.943Z,9.20
2019-03-27T13:14:11.472Z,9.10
2019-03-27T13:16:39.982Z,9.10
2019-03-27T13:19:08.444Z,9.20
2019-03-27T13:21:36.885Z,9.30
2019-03-27T13:24:05.415Z,9.30
2019-03-27T13:26:33.865Z,9.40
2019-03-27T13:29:02.303Z,9.40
2019-03-27T13:31:30.827Z,9.40
2019-03-27T13:33:59.272Z,9.40
2019-03-27T13:36:27.731Z,9.40
2019-03-27T13:38:56.183Z,9.30
2019-03-27T13:41:24.706Z,9.10
2019-03-27T13:43:53.225Z,9.10
2019-03-27T13:46:21.678Z,9.00
2019-03-27T13:48:50.141Z,9.00
2019-03-27T13:51:18.675Z,9.00
2019-03-27T13:53:47.192Z,8.90
2019-03-27T13:56:15.724Z,9.00
2019-03-27T13:58:44.164Z,9.00
2019-03-27T14:01:13.064Z,9.00
2019-03-27T14:03:41.610Z,9.00
2019-03-27T14:06:10.149Z,9.10
2019-03-27T14:08:38.591Z,9.00
2019-03-27T14:11:07.046Z,9.00
2019-03-27T14:13:36.386Z,9.00
2019-03-27T14:16:05.847Z,9.10
2019-03-27T14:18:34.312Z,9.20
2019-03-27T14:21:02.894Z,9.30
2019-03-27T14:23:31.355Z,9.30
2019-03-27T14:25:59.793Z,9.30
2019-03-27T14:28:28.252Z,9.30
2019-03-27T14:30:58.359Z,9.40
2019-03-27T14:33:26.867Z,9.40
2019-03-27T14:35:55.312Z,9.50
2019-03-27T14:38:24.312Z,9.40
2019-03-27T14:40:52.899Z,9.30
2019-03-27T14:43:21.552Z,9.30
2019-03-27T14:45:50.547Z,9.30
2019-03-27T14:48:18.993Z,9.30
2019-03-27T14:50:47.460Z,9.40
2019-03-27T14:53:15.988Z,9.30
2019-03-27T14:55:44.427Z,9.40
2019-03-27T14:58:12.885Z,9.20
2019-03-27T15:00:41.397Z,9.20
2019-03-27T15:03:09.946Z,9.30
2019-03-27T15:05:38.400Z,9.30
2019-03-27T15:08:07.085Z,9.10
2019-03-27T15:10:35.594Z,9.10
2019-03-27T15:13:04.119Z,9.10
2019-03-27T15:15:32.655Z,9.00
2019-03-27T15:18:01.167Z,9.00
2019-03-27T15:20:29.627Z,9.00
2019-03-27T15:22:58.151Z,8.80
2019-03-27T15:25:26.607Z,8.80
2019-03-27T15:27:55.071Z,8.80
2019-03-27T15:30:23.515Z,8.70
2019-03-27T15:32:51.974Z,8.70
2019-03-27T15:35:20.436Z,8.60
2019-03-27T15:37:48.898Z,8.70
2019-03-27T15:40:20.437Z,8.70
2019-03-27T15:42:48.968Z,8.60
2019-03-27T15:45:17.546Z,8.60
2019-03-27T15:47:45.991Z,8.50
2019-03-27T15:50:14.751Z,8.40
2019-03-27T15:52:43.233Z,8.40
2019-03-27T15:55:11.935Z,8.40
2019-03-27T15:57:40.720Z,8.30
2019-03-27T16:00:11.461Z,8.30
2019-03-27T16:02:40.047Z,8.20
2019-03-27T16:05:08.743Z,8.20
2019-03-27T16:07:37.447Z,8.20
2019-03-27T16:10:07.145Z,8.20
2019-03-27T16:12:36.516Z,8.20
2019-03-27T16:15:09.555Z,8.10
2019-03-27T16:17:38.155Z,8.10
2019-03-27T16:20:09.759Z,8.10
2019-03-27T16:22:49.944Z,8.10
2019-03-27T16:25:08.600Z,8.20
2019-03-27T16:27:37.132Z,8.20
2019-03-27T16:30:07.987Z,8.30
2019-03-27T16:32:36.581Z,8.30
2019-03-27T16:35:07.364Z,8.20
2019-03-27T16:37:35.964Z,8.10
2019-03-27T16:40:06.647Z,8.00
2019-03-27T16:42:35.179Z,8.00
2019-03-27T16:45:05.864Z,8.00
2019-03-27T16:47:34.451Z,7.90
2019-03-27T16:50:04.043Z,7.90
2019-03-27T16:52:32.489Z,7.80
2019-03-27T16:55:01.275Z,7.70
2019-03-27T16:57:29.715Z,7.60
2019-03-27T16:59:58.165Z,7.50
2019-03-27T17:02:26.623Z,7.40
2019-03-27T17:04:55.066Z,7.30
2019-03-27T17:07:23.522Z,7.20
2019-03-27T17:09:51.972Z,7.00
2019-03-27T17:12:20.427Z,6.80
2019-03-27T17:14:48.874Z,6.70
2019-03-27T17:17:17.326Z,6.60
2019-03-27T17:19:45.768Z,6.50
2019-03-27T17:22:19.723Z,6.40
2019-03-27T17:24:44.408Z,6.40
2019-03-27T17:27:12.848Z,6.40
2019-03-27T17:29:41.311Z,6.40
2019-03-27T17:32:09.761Z,6.30
2019-03-27T17:34:38.285Z,6.30
2019-03-27T17:37:06.743Z,6.20
2019-03-27T17:39:35.204Z,6.20
2019-03-27T17:42:03.651Z,6.00
2019-03-27T17:44:32.103Z,5.90
2019-03-27T17:47:02.090Z,5.90
2019-03-27T17:49:30.584Z,5.90
2019-03-27T17:51:59.047Z,5.80
2019-03-27T17:54:27.488Z,5.90
2019-03-27T17:56:55.927Z,5.90
2019-03-27T17:59:24.384Z,5.80
2019-03-27T18:01:52.823Z,5.80
2019-03-27T18:04:21.279Z,5.60
2019-03-27T18:06:49.719Z,5.70
2019-03-27T18:09:18.176Z,5.70
2019-03-27T18:11:46.672Z,5.60
2019-03-27T18:14:15.116Z,5.60
2019-03-27T18:16:43.707Z,5.80
2019-03-27T18:19:12.235Z,5.70
2019-03-27T18:21:40.731Z,5.60
2019-03-27T18:24:09.287Z,5.40
2019-03-27T18:26:37.726Z,5.30
2019-03-27T18:29:06.188Z,5.30
2019-03-27T18:31:34.648Z,5.50
2019-03-27T18:34:03.162Z,5.50
2019-03-27T18:36:31.620Z,5.40
2019-03-27T18:39:00.082Z,5.40
2019-03-27T18:41:28.602Z,5.30
2019-03-27T18:43:57.059Z,5.20
2019-03-27T18:46:25.593Z,5.30
2019-03-27T18:48:54.036Z,5.30
2019-03-27T18:51:22.496Z,5.30
2019-03-27T18:53:59.530Z,5.20
2019-03-27T18:56:21.254Z,5.00
2019-03-27T18:58:49.716Z,5.00
2019-03-27T19:01:18.235Z,4.80
2019-03-27T19:03:46.796Z,4.60
2019-03-27T19:06:15.240Z,4.40
2019-03-27T19:08:43.703Z,4.20
2019-03-27T19:11:12.146Z,4.00
2019-03-27T19:13:40.607Z,3.80
2019-03-27T19:16:09.052Z,3.70
2019-03-27T19:18:37.507Z,3.50
2019-03-27T19:21:06.017Z,3.40
2019-03-27T19:23:34.567Z,3.40
2019-03-27T19:26:03.033Z,3.30
2019-03-27T19:28:31.552Z,3.20
2019-03-27T19:31:00.155Z,3.00
2019-03-27T19:33:28.668Z,2.80
2019-03-27T19:35:57.152Z,2.70
2019-03-27T19:38:25.600Z,2.60
2019-03-27T19:40:54.112Z,2.60
2019-03-27T19:43:22.568Z,2.60
2019-03-27T19:45:51.093Z,2.60
2019-03-27T19:48:19.527Z,2.60
2019-03-27T19:50:47.987Z,2.60
2019-03-27T19:53:16.431Z,2.60
2019-03-27T19:55:44.887Z,2.60
2019-03-27T19:58:13.403Z,2.50
2019-03-27T20:00:41.932Z,2.40
2019-03-27T20:03:10.375Z,2.30
2019-03-27T20:05:38.831Z,2.40
2019-03-27T20:08:07.291Z,2.40
2019-03-27T20:10:35.809Z,2.50
2019-03-27T20:13:04.340Z,2.50
2019-03-27T20:15:32.942Z,2.50
2019-03-27T20:18:01.455Z,2.50
2019-03-27T20:20:29.967Z,2.20
2019-03-27T20:22:58.424Z,1.90
2019-03-27T20:25:26.869Z,1.70
2019-03-27T20:27:55.401Z,1.50
2019-03-27T20:30:26.638Z,1.50
2019-03-27T20:32:54.263Z,1.40
2019-03-27T20:35:23.205Z,1.40
2019-03-27T20:37:51.671Z,1.40
2019-03-27T20:40:20.246Z,1.50
2019-03-27T20:42:51.959Z,1.50
2019-03-27T20:45:18.980Z,1.50
2019-03-27T20:47:47.491Z,1.40
2019-03-27T20:50:16.222Z,1.40
2019-03-27T20:52:44.700Z,1.50
2019-03-27T20:55:13.579Z,1.70
2019-03-27T20:57:42.100Z,1.70
2019-03-27T21:00:11.164Z,1.80
2019-03-27T21:02:39.778Z,1.80
2019-03-27T21:05:08.759Z,1.70
2019-03-27T21:07:37.207Z,1.50
2019-03-27T21:10:06.875Z,1.30
2019-03-27T21:12:35.661Z,1.00
2019-03-27T21:15:05.063Z,0.90
2019-03-27T21:17:33.515Z,0.80
2019-03-27T21:20:01.962Z,0.80
2019-03-27T21:22:30.443Z,0.80
2019-03-27T21:25:08.481Z,0.70
2019-03-27T21:27:29.072Z,0.80
2019-03-27T21:29:57.531Z,0.70
2019-03-27T21:32:25.987Z,0.90
2019-03-27T21:34:54.434Z,0.90
2019-03-27T21:37:22.887Z,1.10
2019-03-27T21:39:51.404Z,1.20
2019-03-27T21:42:19.935Z,1.10
2019-03-27T21:44:48.375Z,1.10
2019-03-27T21:47:16.835Z,0.90
2019-03-27T21:49:45.312Z,0.90
2019-03-27T21:52:13.754Z,0.70
2019-03-27T21:54:42.210Z,0.70
2019-03-27T21:57:10.672Z,0.60
2019-03-27T21:59:39.154Z,0.60
2019-03-27T22:02:08.279Z,0.60
2019-03-27T22:04:36.715Z,0.50
2019-03-27T22:07:05.245Z,0.30
2019-03-27T22:09:33.683Z,0.20
2019-03-27T22:12:02.142Z,0.20
2019-03-27T22:14:30.591Z,0.10
2019-03-27T22:16:59.045Z,0.20
2019-03-27T22:19:27.637Z,0.30
2019-03-27T22:21:56.167Z,0.30
2019-03-27T22:24:24.626Z,0.20
2019-03-27T22:26:53.079Z,0.30
2019-03-27T22:29:21.595Z,0.20
2019-03-27T22:31:50.051Z,0.30
2019-03-27T22:34:18.490Z,0.30
2019-03-27T22:36:46.953Z,0.30
2019-03-27T22:39:15.462Z,0.20
2019-03-27T22:41:43.920Z,0.20
2019-03-27T22:44:12.360Z,0.20
2019-03-27T22:46:41.149Z,0.20
2019-03-27T22:49:09.655Z,0.20
2019-03-27T22:51:38.099Z,0.20
2019-03-27T22:54:06.631Z,0.20
2019-03-27T22:56:35.076Z,0.20
2019-03-27T22:59:03.530Z,0.10
2019-03-27T23:01:37.601Z,-0.10
2019-03-27T23:04:06.063Z,-0.20
2019-03-27T23:06:34.508Z,-0.20
2019-03-27T23:09:04.122Z,-0.10
2019-03-27T23:11:32.594Z,-0.10
2019-03-27T23:14:01.094Z,-0.10
2019-03-27T23:16:29.627Z,-0.10
2019-03-27T23:18:58.067Z,0.00
2019-03-27T23:21:26.527Z,-0.10
2019-03-27T23:23:54.982Z,-0.10
2019-03-27T23:26:23.442Z,-0.10
2019-03-27T23:28:51.894Z,-0.20
2019-03-27T23:31:20.361Z,-0.30
2019-03-27T23:33:48.807Z,-0.20
2019-03-27T23:36:17.263Z,-0.20
2019-03-27T23:38:45.724Z,-0.20
2019-03-27T23:41:14.169Z,-0.20
2019-03-27T23:43:42.631Z,0.00
2019-03-27T23:46:11.079Z,0.10
2019-03-27T23:48:39.531Z,0.10
2019-03-27T23:51:07.993Z,0.10
2019-03-27T23:53:36.430Z,0.00
2019-03-27T23:56:15.825Z,0.00
2019-03-27T23:58:35.068Z,0.10
